Dickinson, ND (58601)

1:19 PM MST on February 10, 2016 (GMT -0700)
Southview | | Change Station
CLOSE
Current Station
Personal Weather Station
Location: Dickinson, ND
Elevation: 2434 ft
Nearby Weather Stations

Elev 2434 ft 46.86 °N, 102.78 °W | Updated 10 minutes ago

Overcast
Overcast
36.5 °F
Feels Like 31 °F
N
6.8
Wind Variable Wind from NNW

Today
High -- | Low -- °F
--% Chance of Precip.
Yesterday
High -- | Low -- °F
Precip. -- in
Pressure 30.02 in
Visibility 10.0 miles
Clouds Overcast 1500 ft
Windchill 31 °F
Dew Point 29 °F
Humidity 75%
Rainfall 0.00 in
Snow Depth Not available.
7:03 AM 5:07 PM
Waxing Crescent, 7% visible
METAR KDIK 101956Z AUTO 35014KT 10SM OVC015 03/M02 A2995 RMK AO2 SLP165 T00281022
Pressure 30.02 in
Visibility 10.0 miles
Clouds Overcast 1500 ft
Windchill 31 °F
Dew Point 29 °F
Humidity 75%
Rainfall 0.00 in
Snow Depth Not available.
7:03 AM 5:07 PM
Waxing Crescent, 7% visible
METAR KDIK 101956Z AUTO 35014KT 10SM OVC015 03/M02 A2995 RMK AO2 SLP165 T00281022

10-Day Weather Forecast

Almanac

Astronomy

Feb. 10, 2016 Rise Set
Actual Time
Civil Twilight
Nautical Twilight
Astronomical Twilight
Moon
Length of Visible Light
Length of Day
Tomorrow will be .
, % of the Moon is Illuminated

Today's Extremes

State Highs State Lows

Community

WunderPhotos

Upload Photos

1,891,933 photos uploaded!

WunderBlog® & News

Nearby

Air Quality

  Air Quality AQ Index Pollutant
Not available.

Snow Depth

Station Depth Elevation

Earthquake Activity

City Distance Mag. Time & Date
Minimum magnitude displayed is 2.5.

Coastal Water Temperatures

Place Temperature

Stations

Nearby Weather Stations

Station Location Temp. Windchill Dew Point Humidity Wind Precip. Elev Updated Type
                   

Watches & Warnings

There are currently no watches in effect.